Time;durP1;ratioP1;P1;durP2;ratioP2;P2;SDS_P1;SDS_P2;PMS_P1;PMS_P2;Temp;Humidity;BMP_temperature;BMP_pressure;BME280_temperature;BME280_humidity;BME280_pressure;Samples;Min_cycle;Max_cycle;Signal;HPM_P1;HPM_P2
2022/06/05 00:01:40;;;;;;;4.30;3.85;;;;;;;14.81;100.00;101103.09;6227421;28;20146;-89
2022/06/05 00:05:05;;;;;;;7.70;3.67;;;;;;;14.79;100.00;101099.81;6237393;28;20048;-89
2022/06/05 00:08:23;;;;;;;4.65;3.70;;;;;;;14.74;100.00;101097.59;6236943;28;20048;-88
2022/06/05 00:11:27;;;;;;;4.45;3.92;;;;;;;14.69;100.00;101099.78;6224359;28;20509;-89
2022/06/05 00:14:30;;;;;;;5.00;3.88;;;;;;;14.66;100.00;101102.66;6233316;28;20049;-89
2022/06/05 00:17:31;;;;;;;4.97;4.03;;;;;;;14.59;100.00;101091.94;6219832;28;20046;-89
2022/06/05 00:20:35;;;;;;;5.70;3.83;;;;;;;14.55;100.00;101085.34;6229438;28;20038;-89
2022/06/05 00:23:38;;;;;;;6.00;3.72;;;;;;;14.51;100.00;101083.09;6231544;28;20045;-89
2022/06/05 00:27:04;;;;;;;5.28;3.53;;;;;;;14.45;100.00;101081.84;6231510;28;20045;-89
2022/06/05 00:30:32;;;;;;;5.43;3.55;;;;;;;14.42;100.00;101074.31;6230145;28;20399;-89
2022/06/05 00:33:37;;;;;;;5.68;3.55;;;;;;;14.41;100.00;101073.50;6227638;28;20045;-89
2022/06/05 00:36:54;;;;;;;5.28;3.92;;;;;;;14.34;100.00;101063.75;6230881;28;20067;-89
2022/06/05 00:40:43;;;;;;;4.13;3.72;;;;;;;14.27;100.00;101066.03;6232180;28;20096;-89
2022/06/05 00:43:45;;;;;;;4.22;3.72;;;;;;;14.24;100.00;101061.09;6238056;28;20041;-89
2022/06/05 00:46:50;;;;;;;7.38;4.20;;;;;;;14.21;100.00;101056.97;6225510;28;20175;-89
2022/06/05 00:49:56;;;;;;;4.80;4.05;;;;;;;14.15;100.00;101056.66;6205808;28;20436;-89
2022/06/05 00:53:06;;;;;;;5.10;4.28;;;;;;;14.15;100.00;101049.69;6215031;28;20057;-89
2022/06/05 00:56:12;;;;;;;6.80;4.90;;;;;;;14.15;100.00;101048.84;6234309;28;20087;-89
2022/06/05 00:59:18;;;;;;;5.70;4.35;;;;;;;14.10;100.00;101054.44;6230614;28;20038;-89
2022/06/05 01:02:20;;;;;;;5.32;4.63;;;;;;;14.06;100.00;101047.03;6248592;28;20042;-89
2022/06/05 01:05:25;;;;;;;6.65;4.13;;;;;;;14.07;100.00;101040.88;6240902;28;20044;-89
2022/06/05 01:08:27;;;;;;;5.25;4.30;;;;;;;14.00;100.00;101028.38;6220937;28;20073;-89
2022/06/05 01:12:00;;;;;;;5.35;4.63;;;;;;;13.98;100.00;101032.88;6232489;28;20072;-89
2022/06/05 01:15:11;;;;;;;6.45;4.50;;;;;;;13.92;100.00;101028.22;6244891;28;20035;-89
2022/06/05 01:18:21;;;;;;;;;;;;;;;13.86;100.00;101035.72;6245427;28;20307;-89
2022/06/05 01:21:53;;;;;;;6.33;4.87;;;;;;;13.84;100.00;101035.00;6223340;28;19933;-89
2022/06/05 01:25:45;;;;;;;5.35;4.50;;;;;;;13.77;100.00;101025.13;6238826;28;20584;-89
2022/06/05 01:29:01;;;;;;;5.97;5.18;;;;;;;13.70;100.00;101026.59;6182777;28;20073;-89
2022/06/05 01:32:29;;;;;;;6.85;5.28;;;;;;;13.66;100.00;101033.00;6176312;28;20597;-89
2022/06/05 01:35:49;;;;;;;7.20;5.07;;;;;;;13.62;100.00;101044.66;6173911;28;20039;-89
2022/06/05 01:39:24;;;;;;;7.27;4.73;;;;;;;13.52;100.00;101038.56;6179917;28;20046;-89
2022/06/05 01:42:31;;;;;;;6.38;5.07;;;;;;;13.51;100.00;101036.91;6170065;28;20850;-89
2022/06/05 01:45:44;;;;;;;7.63;5.03;;;;;;;13.43;100.00;101042.72;6166649;28;20107;-89
2022/06/05 01:48:53;;;;;;;6.18;4.72;;;;;;;13.38;100.00;101033.66;6182428;28;20046;-89
2022/06/05 01:52:14;;;;;;;6.28;4.95;;;;;;;13.32;100.00;101035.00;6180825;28;20100;-89
2022/06/05 01:55:24;;;;;;;7.70;4.97;;;;;;;13.23;100.00;101027.94;6194079;28;20118;-89
2022/06/05 01:58:39;;;;;;;8.15;5.07;;;;;;;13.17;100.00;101021.47;6182904;28;20582;-89
2022/06/05 02:01:49;;;;;;;6.18;4.93;;;;;;;13.12;100.00;101010.63;6182298;28;20143;-89
2022/06/05 02:05:20;;;;;;;7.22;5.57;;;;;;;13.07;100.00;101025.78;6238581;28;20064;-90
2022/06/05 02:08:45;;;;;;;7.45;5.40;;;;;;;13.07;100.00;101023.16;6230890;28;20508;-89
2022/06/05 02:11:48;;;;;;;8.25;5.85;;;;;;;13.06;100.00;101018.91;6224861;28;20502;-89
2022/06/05 02:14:51;;;;;;;9.10;5.75;;;;;;;13.06;100.00;101013.72;6237334;28;20075;-89
2022/06/05 02:17:56;;;;;;;8.43;5.85;;;;;;;13.02;100.00;101012.28;6232270;28;20569;-89
2022/06/05 02:20:58;;;;;;;6.20;5.43;;;;;;;12.99;100.00;101007.34;6219243;28;20499;-90
2022/06/05 02:24:00;;;;;;;5.60;5.00;;;;;;;13.01;100.00;101011.47;6244459;28;20207;-89
2022/06/05 02:27:05;;;;;;;7.70;5.97;;;;;;;12.97;100.00;100998.84;6249834;28;20049;-89
2022/06/05 02:30:10;;;;;;;10.07;5.90;;;;;;;12.98;100.00;100990.94;6229654;28;20079;-90
2022/06/05 02:33:41;;;;;;;7.55;5.65;;;;;;;12.99;100.00;100987.38;6230677;28;20037;-90
2022/06/05 02:36:59;;;;;;;6.50;5.45;;;;;;;12.99;100.00;100992.59;6233654;28;20289;-89
2022/06/05 02:40:38;;;;;;;8.82;6.05;;;;;;;13.00;100.00;100996.03;6233550;28;20044;-89
2022/06/05 02:44:34;;;;;;;6.80;5.70;;;;;;;12.97;100.00;100994.50;6235135;28;20052;-89
2022/06/05 02:47:42;;;;;;;8.13;5.70;;;;;;;12.92;100.00;100996.66;6241958;28;20045;-90
2022/06/05 02:50:52;;;;;;;8.50;6.10;;;;;;;12.89;100.00;100995.13;6244364;28;20045;-89
2022/06/05 02:53:57;;;;;;;9.32;6.00;;;;;;;12.83;100.00;100992.19;6236926;28;20049;-89
2022/06/05 02:57:00;;;;;;;9.63;6.47;;;;;;;12.84;100.00;100992.06;6217219;28;20038;-89
2022/06/05 03:00:06;;;;;;;8.65;5.72;;;;;;;12.81;100.00;100989.72;6229240;28;20044;-89
2022/06/05 03:03:28;;;;;;;9.48;6.18;;;;;;;12.78;100.00;101002.97;6228033;28;20046;-89
2022/06/05 03:06:30;;;;;;;6.72;5.63;;;;;;;12.77;100.00;100992.69;6232716;28;20603;-89
2022/06/05 03:09:33;;;;;;;9.30;6.20;;;;;;;12.72;100.00;100995.66;6225846;28;20410;-89
2022/06/05 03:12:35;;;;;;;9.48;6.25;;;;;;;12.75;100.00;100986.81;6241180;28;20589;-89
2022/06/05 03:15:38;;;;;;;9.27;6.43;;;;;;;12.76;100.00;100984.06;6223364;28;20049;-89
2022/06/05 03:18:40;;;;;;;8.05;6.03;;;;;;;12.69;100.00;100988.09;6226506;28;20133;-89
2022/06/05 03:21:42;;;;;;;7.88;6.03;;;;;;;12.70;100.00;100976.78;6221444;28;20041;-89
2022/06/05 03:24:44;;;;;;;9.68;6.28;;;;;;;12.71;100.00;100978.41;6242711;28;20694;-89
2022/06/05 03:27:47;;;;;;;9.25;6.38;;;;;;;12.74;100.00;100977.34;6245635;28;20787;-89
2022/06/05 03:30:49;;;;;;;8.65;6.18;;;;;;;12.69;100.00;100968.16;6239500;28;20050;-89
2022/06/05 03:33:51;;;;;;;10.18;6.55;;;;;;;12.68;100.00;100973.47;6227075;28;20533;-89
2022/06/05 03:36:53;;;;;;;9.25;6.05;;;;;;;12.75;100.00;100973.81;6233392;28;20050;-89
2022/06/05 03:39:55;;;;;;;7.53;6.60;;;;;;;12.73;100.00;100975.72;6226873;28;20172;-89
2022/06/05 03:42:58;;;;;;;8.75;6.15;;;;;;;12.69;100.00;100978.56;6239160;28;20037;-89
2022/06/05 03:46:11;;;;;;;9.18;6.32;;;;;;;12.68;100.00;100971.69;6222581;28;20049;-89
2022/06/05 03:49:13;;;;;;;9.20;6.38;;;;;;;12.80;100.00;100963.88;6235618;28;20037;-89
2022/06/05 03:52:15;;;;;;;11.63;6.68;;;;;;;12.87;100.00;100952.84;6223199;28;20051;-89
2022/06/05 03:55:20;;;;;;;8.68;6.28;;;;;;;12.89;100.00;100956.16;6246902;28;20042;-89
2022/06/05 03:58:22;;;;;;;9.05;6.10;;;;;;;12.90;100.00;100951.78;6226201;28;20057;-89
2022/06/05 04:01:26;;;;;;;8.75;6.07;;;;;;;12.91;100.00;100933.44;6239978;28;20045;-89
2022/06/05 04:04:28;;;;;;;8.30;5.55;;;;;;;12.91;100.00;100940.44;6227415;28;20041;-89
2022/06/05 04:07:30;;;;;;;8.63;6.20;;;;;;;12.93;100.00;100923.75;6232435;28;20531;-89
2022/06/05 04:10:32;;;;;;;8.77;6.25;;;;;;;12.97;100.00;100934.75;6229530;28;20429;-88
2022/06/05 04:13:34;;;;;;;7.63;6.38;;;;;;;13.00;100.00;100923.28;6228364;28;20502;-89
2022/06/05 04:16:39;;;;;;;7.50;5.72;;;;;;;13.04;100.00;100922.88;6223214;28;20080;-89
2022/06/05 04:19:41;;;;;;;8.45;5.93;;;;;;;13.05;100.00;100923.72;6228844;28;20534;-89
2022/06/05 04:22:43;;;;;;;9.02;6.05;;;;;;;13.10;100.00;100906.78;6224688;28;20042;-89
2022/06/05 04:25:45;;;;;;;8.48;5.95;;;;;;;13.20;100.00;100904.22;6221771;28;20844;-89
2022/06/05 04:28:48;;;;;;;7.18;5.43;;;;;;;13.28;100.00;100911.41;6252304;28;20510;-89
2022/06/05 04:31:50;;;;;;;7.65;6.00;;;;;;;13.33;100.00;100912.66;6236224;28;20506;-88
2022/06/05 04:34:52;;;;;;;7.35;6.10;;;;;;;13.37;100.00;100915.03;6244304;28;20077;-89
2022/06/05 04:38:00;;;;;;;6.90;5.68;;;;;;;13.44;100.00;100913.53;6251698;28;20115;-89
2022/06/05 04:41:02;;;;;;;6.70;5.95;;;;;;;13.52;100.00;100911.94;6239826;28;20094;-89
2022/06/05 04:44:05;;;;;;;7.57;6.05;;;;;;;13.57;100.00;100903.75;6233280;28;20037;-89
2022/06/05 04:47:07;;;;;;;7.20;5.50;;;;;;;13.65;100.00;100908.28;6219430;28;20077;-89
2022/06/05 04:50:10;;;;;;;9.18;5.72;;;;;;;13.70;100.00;100893.09;6233175;28;20052;-89
2022/06/05 04:53:11;;;;;;;6.85;5.47;;;;;;;13.77;100.00;100895.03;6221804;28;20068;-89
2022/06/05 04:56:24;;;;;;;8.65;5.35;;;;;;;13.84;100.00;100895.34;6223723;28;20061;-89
2022/06/05 04:59:26;;;;;;;7.57;5.43;;;;;;;13.94;100.00;100896.19;6222059;28;20044;-89
2022/06/05 05:02:28;;;;;;;6.65;5.22;;;;;;;14.02;100.00;100887.69;6237185;28;20118;-88
2022/06/05 05:05:30;;;;;;;8.52;5.90;;;;;;;14.10;100.00;100895.66;6229059;28;20057;-89
2022/06/05 05:08:32;;;;;;;6.85;5.50;;;;;;;14.17;100.00;100888.13;6222397;28;20046;-89
2022/06/05 05:11:37;;;;;;;8.02;5.50;;;;;;;14.25;100.00;100888.28;6231530;28;20532;-89
2022/06/05 05:14:39;;;;;;;6.65;5.35;;;;;;;14.37;100.00;100896.78;6237235;28;20498;-89
2022/06/05 05:17:41;;;;;;;7.03;5.20;;;;;;;14.44;100.00;100888.28;6231737;28;20305;-89
2022/06/05 05:20:43;;;;;;;7.00;5.72;;;;;;;14.55;100.00;100889.94;6233769;28;20045;-89
2022/06/05 05:23:46;;;;;;;6.47;5.72;;;;;;;14.68;100.00;100900.06;6239793;28;20395;-89
2022/06/05 05:26:49;;;;;;;6.78;5.50;;;;;;;14.83;100.00;100900.47;6221261;28;20095;-89
2022/06/05 05:29:50;;;;;;;7.05;5.78;;;;;;;15.00;100.00;100901.53;6225098;28;20045;-89
2022/06/05 05:32:52;;;;;;;11.65;6.28;;;;;;;15.14;100.00;100902.91;6230900;28;20040;-90
2022/06/05 05:35:54;;;;;;;6.20;5.38;;;;;;;15.31;100.00;100911.78;6238028;28;20132;-89
2022/06/05 05:42:18;;;;;;;7.10;5.97;;;;;;;15.73;100.00;100890.47;6232371;28;20053;-89
2022/06/05 05:45:20;;;;;;;7.25;6.07;;;;;;;15.90;100.00;100894.91;6239331;28;20045;-89
2022/06/05 05:48:22;;;;;;;7.35;5.60;;;;;;;16.11;100.00;100899.84;6242840;28;20041;-89
2022/06/05 05:51:27;;;;;;;7.30;5.95;;;;;;;16.29;100.00;100903.28;6243894;28;20049;-89
2022/06/05 05:54:29;;;;;;;7.53;5.88;;;;;;;16.49;100.00;100900.50;6231503;28;20467;-89
2022/06/05 05:57:31;;;;;;;9.20;6.28;;;;;;;16.62;99.96;100900.97;6238347;28;20811;-89
2022/06/05 06:00:34;;;;;;;7.70;6.03;;;;;;;16.78;99.79;100900.28;6235656;28;20495;-89
2022/06/05 06:03:36;;;;;;;8.23;6.38;;;;;;;16.89;98.53;100907.88;6223381;28;20049;-89
2022/06/05 06:06:42;;;;;;;8.45;6.30;;;;;;;17.03;98.89;100901.28;6244269;28;20051;-89
2022/06/05 06:09:45;;;;;;;6.97;6.05;;;;;;;17.13;97.33;100901.16;6233609;28;20052;-89
2022/06/05 06:12:55;;;;;;;;;;;;;;;17.29;95.64;100905.66;6236788;28;20037;-89
2022/06/05 06:15:57;;;;;;;7.97;6.30;;;;;;;17.36;93.51;100906.69;6231288;28;19930;-89
2022/06/05 06:18:59;;;;;;;9.85;6.47;;;;;;;17.40;93.96;100901.00;6233089;28;20056;-89
2022/06/05 06:22:02;;;;;;;8.52;6.32;;;;;;;17.47;94.63;100906.44;6226274;28;20042;-89
2022/06/05 06:25:05;;;;;;;8.02;6.63;;;;;;;17.57;93.47;100887.97;6203922;28;20140;-89
2022/06/05 06:28:07;;;;;;;6.93;5.95;;;;;;;17.62;93.44;100881.28;6234228;28;20046;-89
2022/06/05 06:31:13;;;;;;;8.95;6.05;;;;;;;17.70;91.61;100877.88;6237341;28;20041;-89
2022/06/05 06:34:15;;;;;;;6.63;6.00;;;;;;;17.81;91.14;100867.16;6237354;28;20037;-89
2022/06/05 06:37:20;;;;;;;8.05;5.65;;;;;;;17.86;92.35;100874.50;6242182;28;20030;-89
2022/06/05 06:40:21;;;;;;;11.23;6.85;;;;;;;17.92;91.40;100870.44;6236312;28;20037;-88
2022/06/05 06:43:23;;;;;;;7.53;6.72;;;;;;;18.00;90.79;100863.41;6234420;28;20045;-89
2022/06/05 06:46:25;;;;;;;7.63;6.18;;;;;;;18.02;91.38;100855.41;6235409;28;20049;-89
2022/06/05 06:49:27;;;;;;;9.55;6.50;;;;;;;18.06;91.06;100851.44;6235461;28;20052;-89
2022/06/05 06:52:30;;;;;;;8.95;6.88;;;;;;;18.11;90.20;100841.34;6233240;28;20081;-88
2022/06/05 06:55:32;;;;;;;12.05;6.30;;;;;;;18.11;90.89;100832.63;6228315;28;20057;-89
2022/06/05 06:58:34;;;;;;;8.82;6.45;;;;;;;18.11;91.58;100837.88;6213708;28;20049;-89
2022/06/05 07:01:37;;;;;;;8.50;6.32;;;;;;;18.11;90.48;100837.88;6220498;28;20065;-89
2022/06/05 07:04:39;;;;;;;8.32;6.53;;;;;;;18.09;91.33;100827.56;6229080;28;20049;-89
2022/06/05 07:07:40;;;;;;;9.80;6.68;;;;;;;18.07;91.78;100826.91;6238471;28;20056;-89
2022/06/05 07:10:43;;;;;;;7.18;6.32;;;;;;;18.07;92.80;100825.09;6234466;28;20049;-89
2022/06/05 07:13:45;;;;;;;7.40;6.35;;;;;;;18.14;92.52;100817.41;6228009;28;20044;-89
2022/06/05 07:16:48;;;;;;;8.35;6.18;;;;;;;18.20;93.11;100818.56;6234190;28;20049;-89
2022/06/05 07:19:50;;;;;;;8.07;6.00;;;;;;;18.27;92.41;100816.91;6226398;28;20069;-89
2022/06/05 07:22:52;;;;;;;7.38;6.60;;;;;;;18.35;91.46;100808.22;6217823;28;20569;-88
2022/06/05 07:25:55;;;;;;;9.70;6.10;;;;;;;18.42;91.39;100809.22;6229331;28;20054;-89
2022/06/05 07:28:58;;;;;;;9.05;5.85;;;;;;;18.55;91.26;100813.94;6225242;28;20231;-89
2022/06/05 07:32:00;;;;;;;7.65;6.18;;;;;;;18.69;90.64;100810.66;6236829;28;20044;-89
2022/06/05 07:35:02;;;;;;;9.13;6.75;;;;;;;18.86;90.84;100816.72;6232106;28;20038;-89
2022/06/05 07:38:04;;;;;;;7.38;6.13;;;;;;;19.01;89.80;100816.84;6225196;28;20045;-89
2022/06/05 07:41:22;;;;;;;7.10;5.88;;;;;;;19.14;89.17;100815.28;6227610;28;20591;-89
2022/06/05 07:44:25;;;;;;;7.18;6.47;;;;;;;19.39;87.07;100814.38;6229891;28;20502;-89
2022/06/05 07:47:27;;;;;;;7.07;6.03;;;;;;;19.52;87.55;100802.31;6222460;28;20422;-89
2022/06/05 07:50:29;;;;;;;7.00;5.90;;;;;;;19.64;86.73;100799.28;6233861;28;20044;-89
2022/06/05 07:56:51;;;;;;;7.25;6.45;;;;;;;19.88;85.25;100796.53;6220873;28;20156;-89
2022/06/05 07:59:53;;;;;;;8.00;5.90;;;;;;;20.00;86.15;100789.06;6222613;28;20034;-89
2022/06/05 08:02:55;;;;;;;7.93;5.80;;;;;;;20.14;84.90;100787.47;6226032;28;20227;-89
2022/06/05 08:05:56;;;;;;;6.88;5.68;;;;;;;20.26;83.54;100790.50;6221134;28;20562;-88
2022/06/05 08:08:59;;;;;;;8.90;6.13;;;;;;;20.29;83.86;100785.69;6218765;28;20045;-89
2022/06/05 08:12:01;;;;;;;8.88;6.38;;;;;;;20.44;82.58;100783.88;6219836;28;20491;-89
2022/06/05 08:15:10;;;;;;;8.05;6.78;;;;;;;20.59;82.54;100777.84;6222993;28;20087;-89
2022/06/05 08:18:12;;;;;;;8.50;6.88;;;;;;;20.79;81.39;100763.16;6220623;28;20601;-89
2022/06/05 08:21:14;;;;;;;8.30;6.97;;;;;;;20.96;80.74;100758.53;6217703;28;20037;-89
2022/06/05 08:24:16;;;;;;;9.07;6.78;;;;;;;21.23;78.50;100749.13;6240398;28;20120;-90
2022/06/05 08:27:23;;;;;;;7.80;6.63;;;;;;;21.53;77.62;100745.63;6222702;28;20045;-89
2022/06/05 08:30:25;;;;;;;8.23;5.95;;;;;;;21.84;77.79;100740.03;6230855;28;20036;-89
2022/06/05 08:33:27;;;;;;;10.85;6.75;;;;;;;22.06;73.34;100749.53;6237623;28;20034;-90
2022/06/05 08:36:30;;;;;;;8.75;5.93;;;;;;;22.29;75.07;100745.88;6232039;28;20044;-90
2022/06/05 08:43:01;;;;;;;7.47;6.13;;;;;;;22.75;71.47;100732.13;6236195;28;20030;-89
2022/06/05 08:46:26;;;;;;;6.03;5.43;;;;;;;23.03;70.34;100731.22;6244508;28;20503;-89
2022/06/05 08:49:48;;;;;;;6.88;6.05;;;;;;;23.25;68.30;100740.66;6234509;28;20069;-90
2022/06/05 08:52:56;;;;;;;5.70;5.10;;;;;;;23.39;66.59;100736.22;6233729;28;20125;-91
2022/06/05 08:55:59;;;;;;;5.72;5.18;;;;;;;23.49;67.08;100733.19;6234762;28;20057;-91
2022/06/05 08:59:10;;;;;;;6.15;5.47;;;;;;;23.61;68.89;100727.09;6229178;28;20499;-91
2022/06/05 09:02:21;;;;;;;7.00;5.30;;;;;;;23.74;66.02;100726.31;6214930;28;20037;-90
2022/06/05 09:05:28;;;;;;;6.63;5.18;;;;;;;23.81;64.52;100728.97;6240229;28;20127;-90
2022/06/05 09:08:36;;;;;;;7.40;5.50;;;;;;;23.83;63.36;100733.03;6237741;28;20042;-91
2022/06/05 09:11:44;;;;;;;5.88;5.38;;;;;;;23.88;63.57;100735.09;6237079;28;20048;-89
2022/06/05 09:14:49;;;;;;;6.03;5.47;;;;;;;23.91;63.78;100736.50;6218153;28;20049;-90
2022/06/05 09:18:00;;;;;;;5.82;5.22;;;;;;;23.96;62.72;100732.22;6224825;28;20037;-90
2022/06/05 09:21:29;;;;;;;5.90;5.00;;;;;;;24.03;61.26;100724.28;6244862;28;20049;-90
2022/06/05 09:24:37;;;;;;;6.33;5.53;;;;;;;24.16;60.99;100707.59;6228575;28;20056;-90
2022/06/05 09:28:01;;;;;;;8.70;5.55;;;;;;;24.32;61.00;100703.69;6246854;28;20626;-89
2022/06/05 09:31:18;;;;;;;6.50;5.20;;;;;;;24.55;59.66;100706.72;6239047;28;20487;-90
2022/06/05 09:34:27;;;;;;;6.18;5.57;;;;;;;24.63;58.52;100698.53;6246780;28;20056;-90
2022/06/05 09:37:48;;;;;;;6.93;6.10;;;;;;;24.69;60.12;100697.69;6245748;28;20037;-90
2022/06/05 09:41:04;;;;;;;6.43;5.60;;;;;;;24.68;56.73;100696.06;6248803;28;20045;-89
2022/06/05 09:44:36;;;;;;;6.50;5.45;;;;;;;24.55;57.82;100695.31;6259507;28;20051;-89
2022/06/05 09:48:15;;;;;;;5.43;4.93;;;;;;;24.49;57.46;100681.06;6245967;28;20056;-89
2022/06/05 09:51:19;;;;;;;5.40;4.90;;;;;;;24.44;58.25;100686.13;6247460;28;20520;-90
2022/06/05 09:54:29;;;;;;;5.20;4.70;;;;;;;24.37;57.02;100664.19;6264612;28;20048;-90
2022/06/05 10:01:29;;;;;;;6.88;5.38;;;;;;;24.39;55.78;100656.84;6233923;28;20179;-90
2022/06/05 10:04:34;;;;;;;5.65;5.15;;;;;;;24.54;57.37;100661.91;6233128;28;20037;-89
2022/06/05 10:08:11;;;;;;;5.55;5.05;;;;;;;24.66;56.86;100645.16;6252026;28;20037;-92
2022/06/05 10:11:32;;;;;;;5.65;5.13;;;;;;;24.74;55.92;100635.34;6245991;28;20406;-92
2022/06/05 10:14:47;;;;;;;5.55;5.05;;;;;;;24.78;54.02;100641.84;6242647;28;20038;-92
2022/06/05 10:17:54;;;;;;;5.70;5.20;;;;;;;24.64;55.08;100636.59;6251987;28;20049;-93
2022/06/05 10:21:11;;;;;;;5.72;5.10;;;;;;;24.81;54.82;100641.41;6254175;28;20048;-93
2022/06/05 10:24:33;;;;;;;10.85;4.97;;;;;;;25.06;55.05;100650.22;6238732;28;20049;-93
2022/06/05 10:27:36;;;;;;;5.00;4.60;;;;;;;25.32;54.50;100651.13;6249486;28;20411;-93
2022/06/05 10:31:12;;;;;;;9.38;5.15;;;;;;;25.43;55.75;100646.94;6255215;28;20341;-93
2022/06/05 10:34:37;;;;;;;5.88;5.35;;;;;;;25.55;53.62;100634.59;6194488;28;20057;-92
2022/06/05 10:37:48;;;;;;;5.90;5.18;;;;;;;25.51;52.07;100628.09;6182021;28;20193;-92
2022/06/05 10:40:54;;;;;;;5.75;5.15;;;;;;;25.40;53.27;100607.63;6175229;28;20126;-92
2022/06/05 10:44:24;;;;;;;5.80;5.30;;;;;;;25.40;52.41;100610.28;6161251;28;20532;-91
2022/06/05 10:47:40;;;;;;;6.85;6.25;;;;;;;25.45;56.00;100619.19;6172806;28;20129;-92
2022/06/05 10:50:54;;;;;;;7.03;6.00;;;;;;;25.53;54.00;100605.66;6188546;28;20058;-93
2022/06/05 10:54:25;;;;;;;6.65;5.78;;;;;;;25.60;52.98;100605.59;6191276;28;20042;-93
2022/06/05 10:57:38;;;;;;;7.95;5.53;;;;;;;25.89;51.41;100596.16;6046418;29;20403;-92
2022/06/05 11:00:58;;;;;;;7.10;5.75;;;;;;;26.26;51.29;100593.50;6065870;29;20138;-93
2022/06/05 11:04:16;;;;;;;5.18;4.85;;;;;;;26.64;49.60;100598.53;6064940;29;20864;-92
2022/06/05 11:08:12;;;;;;;6.15;5.57;;;;;;;26.91;48.89;100581.41;6050773;29;20633;-93
2022/06/05 11:14:53;;;;;;;6.35;5.72;;;;;;;27.46;49.67;100583.81;6079484;29;20060;-92
2022/06/05 11:18:25;;;;;;;5.47;4.95;;;;;;;27.78;46.59;100581.56;6076983;29;20048;-92
2022/06/05 11:21:29;;;;;;;6.53;5.38;;;;;;;28.00;46.54;100571.16;6127083;28;20050;-93
2022/06/05 11:24:52;;;;;;;5.85;5.32;;;;;;;28.08;44.97;100569.97;6174163;28;20050;-91
2022/06/05 11:28:40;;;;;;;5.63;5.05;;;;;;;28.05;44.42;100581.91;6178011;28;20058;-92
2022/06/05 11:31:56;;;;;;;5.35;4.95;;;;;;;28.18;47.38;100558.72;6175407;28;20676;-94
2022/06/05 11:35:30;;;;;;;5.60;5.10;;;;;;;28.42;45.54;100554.09;6182535;28;20049;-94
2022/06/05 11:38:53;;;;;;;5.53;5.03;;;;;;;28.50;44.49;100545.75;6170095;28;20046;-92
2022/06/05 11:42:25;;;;;;;5.78;5.05;;;;;;;28.39;44.57;100539.41;6166297;28;20110;-92
2022/06/05 11:45:50;;;;;;;7.32;5.57;;;;;;;28.35;44.29;100546.25;6216508;28;20053;-91
2022/06/05 11:49:30;;;;;;;5.13;4.65;;;;;;;28.50;42.54;100543.91;6228298;28;20041;-93
2022/06/05 11:52:44;;;;;;;5.20;4.80;;;;;;;28.64;43.19;100532.94;6224484;28;20124;-93
2022/06/05 11:56:00;;;;;;;13.73;5.97;;;;;;;28.47;44.43;100520.41;6229670;28;20048;-92
2022/06/05 11:59:20;;;;;;;5.07;4.68;;;;;;;28.21;43.99;100510.31;6224705;28;20029;-92
2022/06/05 12:02:40;;;;;;;;;;;;;;;28.27;46.53;100504.03;6226919;28;20079;-92
2022/06/05 12:05:59;;;;;;;6.13;4.95;;;;;;;28.40;43.03;100506.41;6232030;28;19937;-95
2022/06/05 12:09:05;;;;;;;5.50;4.88;;;;;;;28.53;44.95;100502.66;6227559;28;20412;-94
2022/06/05 12:12:29;;;;;;;5.15;4.72;;;;;;;28.59;44.95;100496.34;6228959;28;20033;-93
2022/06/05 12:15:55;;;;;;;6.22;4.70;;;;;;;28.40;43.27;100482.44;6229123;28;20041;-94
2022/06/05 12:19:27;;;;;;;6.45;5.20;;;;;;;28.38;42.00;100483.75;6231268;28;20068;-93
2022/06/05 12:22:40;;;;;;;5.60;5.13;;;;;;;28.38;42.88;100475.75;6221935;28;20033;-92
2022/06/05 12:26:23;;;;;;;5.97;5.32;;;;;;;28.34;43.91;100483.38;6231233;28;20077;-92
2022/06/05 12:29:50;;;;;;;5.43;4.93;;;;;;;28.33;43.49;100471.94;6230987;28;20042;-92
2022/06/05 12:33:11;;;;;;;6.13;4.93;;;;;;;28.35;45.23;100466.38;6230720;28;20029;-91
2022/06/05 12:36:24;;;;;;;5.50;4.95;;;;;;;28.42;46.53;100460.88;6229120;28;20068;-93
2022/06/05 12:39:33;;;;;;;5.03;4.63;;;;;;;28.43;42.92;100462.53;6232074;28;20125;-92
2022/06/05 12:43:06;;;;;;;5.25;4.85;;;;;;;28.51;43.94;100452.28;6237370;28;20045;-93
2022/06/05 12:46:40;;;;;;;5.55;4.57;;;;;;;28.66;42.23;100450.91;6166133;28;20054;-92
2022/06/05 12:49:54;;;;;;;6.47;4.82;;;;;;;28.73;43.91;100449.69;6168009;28;20050;-91
2022/06/05 12:53:09;;;;;;;5.40;4.88;;;;;;;28.73;42.83;100448.91;6166842;28;20047;-90
2022/06/05 12:56:27;;;;;;;4.93;4.53;;;;;;;28.64;42.36;100443.16;6166894;28;20137;-91
2022/06/05 12:59:41;;;;;;;5.20;4.70;;;;;;;28.54;42.67;100443.00;6171056;28;20145;-92
2022/06/05 13:03:01;;;;;;;4.70;4.40;;;;;;;28.42;43.44;100436.91;6172658;28;20051;-91
2022/06/05 13:06:12;;;;;;;5.10;4.70;;;;;;;28.41;44.67;100435.31;6154512;28;20035;-92
2022/06/05 13:09:19;;;;;;;5.03;4.43;;;;;;;28.45;43.28;100429.31;6173940;28;20062;-92
2022/06/05 13:12:37;;;;;;;4.35;4.03;;;;;;;28.47;42.60;100426.38;6158866;28;20051;-94
2022/06/05 13:16:04;;;;;;;9.10;4.28;;;;;;;28.34;42.91;100417.63;6166990;28;20059;-93
2022/06/05 13:19:51;;;;;;;5.05;4.28;;;;;;;28.25;44.32;100415.63;6169709;28;20085;-93
2022/06/05 13:23:31;;;;;;;4.72;4.18;;;;;;;28.13;43.80;100416.50;6190343;28;20149;-92
2022/06/05 13:26:46;;;;;;;8.48;4.55;;;;;;;27.92;42.67;100406.53;6191134;28;20642;-95
2022/06/05 13:30:18;;;;;;;5.97;4.47;;;;;;;27.76;45.26;100401.97;6182251;28;20165;-95
2022/06/05 13:33:41;;;;;;;4.88;4.47;;;;;;;27.69;44.39;100397.59;6201229;28;20132;-96
2022/06/05 13:36:52;;;;;;;4.40;4.10;;;;;;;27.59;45.01;100399.25;6193854;28;20060;-93
2022/06/05 13:40:12;;;;;;;5.50;5.00;;;;;;;27.62;44.88;100396.13;6185877;28;20638;-92
2022/06/05 13:43:25;;;;;;;5.28;4.78;;;;;;;27.61;48.25;100386.53;6197969;28;20664;-89
2022/06/05 13:46:38;;;;;;;5.18;4.78;;;;;;;27.61;44.84;100382.00;6205773;28;20088;-90
2022/06/05 13:49:58;;;;;;;4.93;4.43;;;;;;;27.43;44.93;100382.22;6203383;28;20531;-89
2022/06/05 13:53:21;;;;;;;5.18;4.30;;;;;;;27.09;45.68;100379.38;6194568;28;20500;-89
2022/06/05 13:56:49;;;;;;;4.75;4.32;;;;;;;26.74;46.70;100382.88;6206793;28;20112;-89
2022/06/05 14:00:01;;;;;;;6.50;4.88;;;;;;;26.58;48.35;100372.94;6198853;28;20211;-89
2022/06/05 14:03:16;;;;;;;7.72;5.20;;;;;;;26.35;51.64;100384.31;6203063;28;20056;-89
2022/06/05 14:06:34;;;;;;;5.57;5.05;;;;;;;25.93;54.91;100379.84;6228836;28;20042;-88
2022/06/05 14:09:48;;;;;;;5.00;4.60;;;;;;;25.43;57.77;100384.56;6228247;28;20030;-88
2022/06/05 14:13:12;;;;;;;5.57;5.00;;;;;;;24.87;62.48;100386.38;6228457;28;20107;-88
2022/06/05 14:16:15;;;;;;;5.55;5.15;;;;;;;24.23;68.88;100381.19;6230725;28;20283;-87
2022/06/05 14:19:32;;;;;;;5.60;5.10;;;;;;;23.73;76.33;100375.78;6238773;28;20044;-87
2022/06/05 14:23:02;;;;;;;6.47;5.88;;;;;;;23.34;82.79;100369.63;6245441;28;20037;-87
2022/06/05 14:26:05;;;;;;;5.85;5.20;;;;;;;22.92;88.03;100377.03;6229381;28;20041;-87
2022/06/05 14:29:13;;;;;;;6.43;5.93;;;;;;;22.55;92.99;100366.09;6240659;28;20041;-87
2022/06/05 14:32:27;;;;;;;6.35;5.85;;;;;;;22.25;99.25;100356.97;6234910;28;20053;-86
2022/06/05 14:35:42;;;;;;;6.78;6.18;;;;;;;21.89;100.00;100355.47;6236488;28;20516;-87
2022/06/05 14:38:53;;;;;;;7.60;6.90;;;;;;;21.60;100.00;100348.72;6233159;28;20505;-88
2022/06/05 14:42:02;;;;;;;7.82;7.07;;;;;;;21.39;100.00;100339.09;6238272;28;20487;-88
2022/06/05 14:45:25;;;;;;;7.85;7.15;;;;;;;21.36;100.00;100344.72;6232270;28;20574;-88
2022/06/05 14:48:32;;;;;;;9.02;8.13;;;;;;;21.43;100.00;100337.72;6228714;28;20301;-88
2022/06/05 14:51:43;;;;;;;8.23;7.03;;;;;;;21.56;100.00;100334.31;6254686;28;20211;-87
2022/06/05 14:58:25;;;;;;;8.15;7.35;;;;;;;21.66;100.00;100321.56;6232127;28;20046;-88
2022/06/05 15:01:56;;;;;;;8.07;7.28;;;;;;;21.61;100.00;100318.72;6238357;28;20041;-88
2022/06/05 15:05:04;;;;;;;7.47;6.88;;;;;;;21.59;100.00;100313.66;6238937;28;20354;-88
2022/06/05 15:08:40;;;;;;;8.63;7.93;;;;;;;21.62;100.00;100305.34;6239180;28;20525;-88